createdAt,value
2023-05-13T00:03:05.373Z,23.70
2023-05-13T00:07:03.358Z,23.10
2023-05-13T00:11:01.326Z,26.40
2023-05-13T00:14:59.321Z,23.50
2023-05-13T00:18:57.393Z,22.10
2023-05-13T00:22:55.385Z,25.00
2023-05-13T00:26:53.356Z,25.20
2023-05-13T00:30:52.375Z,29.30
2023-05-13T00:34:50.335Z,27.40
2023-05-13T00:38:48.347Z,31.30
2023-05-13T00:42:46.368Z,28.70
2023-05-13T00:46:48.409Z,28.50
2023-05-13T00:50:46.306Z,26.90
2023-05-13T00:54:44.371Z,25.00
2023-05-13T00:58:42.270Z,25.80
2023-05-13T01:02:56.420Z,26.70
2023-05-13T01:07:04.284Z,25.40
2023-05-13T01:15:29.332Z,34.20
2023-05-13T01:19:50.284Z,27.20
2023-05-13T01:23:48.277Z,24.80
2023-05-13T01:27:46.271Z,30.30
2023-05-13T01:31:44.275Z,33.20
2023-05-13T01:35:44.262Z,24.70
2023-05-13T01:39:43.246Z,30.20
2023-05-13T01:43:41.229Z,26.10
2023-05-13T01:47:39.272Z,29.20
2023-05-13T01:51:37.266Z,24.40
2023-05-13T01:55:35.200Z,25.10
2023-05-13T01:59:33.213Z,28.70
2023-05-13T02:03:31.354Z,28.30
2023-05-13T02:07:29.344Z,26.60
2023-05-13T02:11:27.157Z,31.60
2023-05-13T02:15:25.197Z,31.80
2023-05-13T02:19:23.269Z,32.60
2023-05-13T02:23:21.300Z,32.10
2023-05-13T02:27:23.201Z,26.30
2023-05-13T02:31:21.321Z,28.60
2023-05-13T02:35:19.183Z,26.30
2023-05-13T02:39:17.162Z,27.00
2023-05-13T02:43:15.117Z,29.40
2023-05-13T02:47:16.160Z,27.10
2023-05-13T02:51:14.161Z,37.70
2023-05-13T02:55:12.352Z,27.00
2023-05-13T02:59:10.214Z,29.10
2023-05-13T03:03:08.227Z,32.60
2023-05-13T03:07:06.128Z,33.20
2023-05-13T03:11:04.135Z,41.40
2023-05-13T03:15:03.168Z,32.10
2023-05-13T03:19:01.143Z,28.40
2023-05-13T03:22:59.133Z,33.40
2023-05-13T03:26:57.113Z,33.80
2023-05-13T03:30:55.103Z,29.30
2023-05-13T03:34:54.096Z,29.10
2023-05-13T03:38:52.152Z,25.70
2023-05-13T03:42:50.117Z,21.70
2023-05-13T03:46:48.139Z,23.80
2023-05-13T03:50:46.094Z,26.20
2023-05-13T03:54:44.112Z,24.10
2023-05-13T03:59:00.161Z,24.60
2023-05-13T04:03:00.115Z,22.20
2023-05-13T04:06:58.054Z,21.70
2023-05-13T04:10:56.078Z,28.90
2023-05-13T04:14:54.074Z,23.40
2023-05-13T04:18:52.091Z,22.70
2023-05-13T04:22:52.192Z,27.40
2023-05-13T04:26:50.038Z,21.10
2023-05-13T04:30:48.060Z,25.00
2023-05-13T04:34:46.037Z,22.20
2023-05-13T04:38:44.090Z,22.30
2023-05-13T04:42:42.032Z,18.10
2023-05-13T04:46:40.208Z,18.70
2023-05-13T04:50:38.019Z,17.90
2023-05-13T04:58:55.003Z,18.20
2023-05-13T05:02:53.160Z,15.90
2023-05-13T05:06:50.979Z,21.00
2023-05-13T05:10:49.031Z,19.20
2023-05-13T05:14:47.009Z,22.00
2023-05-13T05:18:45.068Z,20.00
2023-05-13T05:22:43.084Z,21.90
2023-05-13T05:26:42.755Z,21.40
2023-05-13T05:30:46.020Z,19.70
2023-05-13T05:34:50.009Z,20.00
2023-05-13T05:38:47.955Z,12.00
2023-05-13T05:42:48.033Z,15.30
2023-05-13T05:46:45.979Z,12.10
2023-05-13T05:50:44.024Z,12.80
2023-05-13T05:54:49.051Z,15.90
2023-05-13T05:58:48.007Z,10.80
2023-05-13T06:02:47.056Z,12.00
2023-05-13T06:06:46.006Z,11.80
2023-05-13T06:10:44.965Z,14.50
2023-05-13T06:14:42.984Z,14.40
2023-05-13T06:18:41.009Z,12.80
2023-05-13T06:22:38.971Z,10.00
2023-05-13T06:26:36.933Z,10.80
2023-05-13T06:30:38.050Z,12.80
2023-05-13T06:34:35.944Z,7.20
2023-05-13T06:38:33.977Z,12.00
2023-05-13T06:42:31.962Z,9.20
2023-05-13T06:46:36.953Z,10.80
2023-05-13T06:50:35.916Z,10.50
2023-05-13T06:54:33.958Z,10.60
2023-05-13T06:58:31.913Z,10.20
2023-05-13T07:02:29.985Z,13.10
2023-05-13T07:06:27.876Z,11.30
2023-05-13T07:10:25.913Z,13.10
2023-05-13T07:14:23.874Z,6.50
2023-05-13T07:18:21.984Z,7.00
2023-05-13T07:22:19.872Z,9.20
2023-05-13T07:26:17.870Z,7.80
2023-05-13T07:30:15.895Z,8.90
2023-05-13T07:34:13.932Z,7.20
2023-05-13T07:38:12.024Z,7.10
2023-05-13T07:42:09.907Z,5.10
2023-05-13T07:46:07.859Z,7.90
2023-05-13T07:50:06.877Z,7.80
2023-05-13T07:54:04.904Z,8.90
2023-05-13T07:58:02.886Z,4.40
2023-05-13T08:02:00.828Z,6.30
2023-05-13T08:05:58.862Z,6.00
2023-05-13T08:09:56.873Z,7.60
2023-05-13T08:13:54.898Z,6.30
2023-05-13T08:17:52.928Z,6.50
2023-05-13T08:21:57.848Z,8.40
2023-05-13T08:25:55.821Z,6.90
2023-05-13T08:29:53.945Z,6.40
2023-05-13T08:33:52.776Z,6.50
2023-05-13T08:37:50.906Z,4.80
2023-05-13T08:41:49.815Z,5.90
2023-05-13T08:45:48.833Z,6.70
2023-05-13T08:49:47.810Z,5.50
2023-05-13T08:53:45.830Z,8.10
2023-05-13T08:57:43.813Z,4.90
2023-05-13T09:01:41.946Z,6.50
2023-05-13T09:05:39.858Z,8.00
2023-05-13T09:09:37.832Z,5.50
2023-05-13T09:13:36.778Z,5.70
2023-05-13T09:17:34.793Z,6.70
2023-05-13T09:21:44.756Z,7.30
2023-05-13T09:25:43.777Z,3.70
2023-05-13T09:29:42.759Z,5.50
2023-05-13T09:34:01.771Z,5.70
2023-05-13T09:38:21.716Z,7.90
2023-05-13T09:42:19.871Z,8.50
2023-05-13T09:46:18.801Z,7.00
2023-05-13T09:50:17.774Z,7.40
2023-05-13T09:54:21.800Z,7.90
2023-05-13T09:58:26.728Z,13.10
2023-05-13T10:02:27.747Z,7.80
2023-05-13T10:06:25.769Z,4.90
2023-05-13T10:10:23.831Z,5.10
2023-05-13T10:14:21.766Z,5.40
2023-05-13T10:18:19.834Z,5.90
2023-05-13T10:22:17.750Z,4.80
2023-05-13T10:26:16.727Z,7.10
2023-05-13T10:30:16.790Z,11.10
2023-05-13T10:34:14.700Z,5.20
2023-05-13T10:38:23.692Z,6.00
2023-05-13T10:42:51.704Z,9.10
2023-05-13T10:46:49.914Z,4.20
2023-05-13T10:50:51.690Z,4.60
2023-05-13T10:54:54.717Z,6.60
2023-05-13T10:58:52.676Z,9.60
2023-05-13T11:02:51.758Z,5.40
2023-05-13T11:06:56.684Z,5.40
2023-05-13T11:10:55.672Z,4.20
2023-05-13T11:14:57.652Z,4.90
2023-05-13T11:18:55.737Z,6.20
2023-05-13T11:22:55.613Z,6.20
2023-05-13T11:27:02.670Z,4.40
2023-05-13T11:31:32.704Z,6.00
2023-05-13T11:35:34.680Z,8.90
2023-05-13T11:39:34.649Z,3.90
2023-05-13T11:43:35.644Z,3.50
2023-05-13T11:47:40.673Z,6.80
2023-05-13T11:51:39.743Z,4.70
2023-05-13T11:55:45.630Z,3.50
2023-05-13T11:59:48.236Z,3.70
2023-05-13T12:03:46.672Z,4.90
2023-05-13T12:07:44.663Z,5.20
2023-05-13T12:11:42.625Z,8.60
2023-05-13T12:15:40.673Z,3.30
2023-05-13T12:19:38.634Z,7.80
2023-05-13T12:23:36.634Z,3.20
2023-05-13T12:27:34.633Z,5.40
2023-05-13T12:31:32.647Z,5.20
2023-05-13T12:35:30.561Z,4.50
2023-05-13T12:39:34.542Z,3.50
2023-05-13T12:43:33.551Z,3.60
2023-05-13T12:47:31.623Z,3.80
2023-05-13T12:51:29.636Z,8.20
2023-05-13T12:55:27.625Z,6.30
2023-05-13T12:59:25.598Z,3.70
2023-05-13T13:03:24.565Z,3.90
2023-05-13T13:07:22.565Z,6.10
2023-05-13T13:11:24.592Z,6.20
2023-05-13T13:15:23.806Z,5.30
2023-05-13T13:19:21.704Z,6.10
2023-05-13T13:23:19.561Z,5.90
2023-05-13T13:27:17.554Z,7.90
2023-05-13T13:31:15.574Z,6.60
2023-05-13T13:35:13.582Z,6.90
2023-05-13T13:39:11.526Z,5.60
2023-05-13T13:43:09.544Z,5.30
2023-05-13T13:47:07.530Z,6.20
2023-05-13T13:51:06.584Z,5.90
2023-05-13T13:55:04.503Z,4.10
2023-05-13T13:59:02.722Z,5.90
2023-05-13T14:03:00.641Z,5.30
2023-05-13T14:06:59.532Z,6.30
2023-05-13T14:10:57.497Z,7.20
2023-05-13T14:14:55.540Z,6.50
2023-05-13T14:18:53.572Z,8.80
2023-05-13T14:22:51.537Z,8.50
2023-05-13T14:26:49.472Z,6.70
2023-05-13T14:30:47.524Z,5.70
2023-05-13T14:34:45.591Z,7.80
2023-05-13T14:38:43.533Z,8.50
2023-05-13T14:42:41.489Z,6.80
2023-05-13T14:46:41.582Z,6.60
2023-05-13T14:50:41.166Z,6.60
2023-05-13T14:54:42.493Z,8.30
2023-05-13T14:58:45.465Z,3.90
2023-05-13T15:02:43.601Z,4.70
2023-05-13T15:06:41.510Z,5.70
2023-05-13T15:10:39.521Z,6.70
2023-05-13T15:14:40.450Z,5.40
2023-05-13T15:18:38.595Z,4.80
2023-05-13T15:22:36.466Z,8.60
2023-05-13T15:26:34.511Z,4.70
2023-05-13T15:30:32.494Z,4.20
2023-05-13T15:34:30.576Z,3.70
2023-05-13T15:38:28.429Z,4.60
2023-05-13T15:42:26.461Z,4.50
2023-05-13T15:46:24.520Z,5.20
2023-05-13T15:50:22.739Z,6.20
2023-05-13T15:54:20.402Z,4.90
2023-05-13T15:58:18.579Z,6.70
2023-05-13T16:02:16.527Z,5.60
2023-05-13T16:06:14.578Z,5.60
2023-05-13T16:10:12.470Z,4.00
2023-05-13T16:14:11.533Z,10.60
2023-05-13T16:18:09.436Z,8.60
2023-05-13T16:22:07.404Z,9.80
2023-05-13T16:26:05.388Z,10.90
2023-05-13T16:30:03.386Z,10.30
2023-05-13T16:34:01.417Z,7.10
2023-05-13T16:37:59.455Z,9.10
2023-05-13T16:41:57.343Z,11.20
2023-05-13T16:45:55.457Z,9.30
2023-05-13T16:49:55.388Z,12.70
2023-05-13T16:53:53.469Z,11.80
2023-05-13T16:57:51.426Z,15.60
2023-05-13T17:01:49.459Z,13.90
2023-05-13T17:05:47.373Z,11.30
2023-05-13T17:09:45.465Z,15.00
2023-05-13T17:13:43.364Z,14.70
2023-05-13T17:17:41.397Z,15.00
2023-05-13T17:21:39.343Z,16.70
2023-05-13T17:25:37.437Z,18.00
2023-05-13T17:29:35.496Z,15.60
2023-05-13T17:33:33.365Z,16.60
2023-05-13T17:37:31.340Z,16.30
2023-05-13T17:41:29.453Z,17.10
2023-05-13T17:45:27.409Z,17.20
2023-05-13T17:49:25.415Z,18.90
2023-05-13T17:53:23.346Z,19.30
2023-05-13T17:57:22.378Z,21.50
2023-05-13T18:01:20.411Z,18.60
2023-05-13T18:05:18.383Z,19.20
2023-05-13T18:09:16.288Z,19.80
2023-05-13T18:13:14.300Z,20.80
2023-05-13T18:17:12.305Z,22.10
2023-05-13T18:21:10.332Z,23.50
2023-05-13T18:25:08.369Z,28.70
2023-05-13T18:29:06.415Z,18.90
2023-05-13T18:33:04.443Z,19.30
2023-05-13T18:37:02.335Z,20.80
2023-05-13T18:41:00.287Z,21.30
2023-05-13T18:44:58.307Z,16.60
2023-05-13T18:48:56.266Z,23.60
2023-05-13T18:52:54.295Z,21.30
2023-05-13T18:56:52.211Z,20.80
2023-05-13T19:00:50.379Z,25.90
2023-05-13T19:04:48.245Z,24.90
2023-05-13T19:08:46.253Z,22.40
2023-05-13T19:12:44.305Z,25.40
2023-05-13T19:16:42.344Z,22.80
2023-05-13T19:20:40.300Z,23.20
2023-05-13T19:24:38.252Z,24.60
2023-05-13T19:28:36.212Z,21.50
2023-05-13T19:32:34.312Z,23.60
2023-05-13T19:36:33.250Z,23.20
2023-05-13T19:40:31.253Z,26.00
2023-05-13T19:44:29.214Z,23.50
2023-05-13T19:48:29.645Z,24.80
2023-05-13T19:52:27.259Z,22.30
2023-05-13T19:56:25.208Z,21.50
2023-05-13T20:00:25.420Z,34.30
2023-05-13T20:04:23.195Z,34.50
2023-05-13T20:08:21.304Z,36.30
2023-05-13T20:12:19.276Z,39.80
2023-05-13T20:16:17.167Z,40.10
2023-05-13T20:20:15.260Z,29.70
2023-05-13T20:24:13.156Z,39.80
2023-05-13T20:28:11.189Z,39.60
2023-05-13T20:32:09.269Z,33.10
2023-05-13T20:36:07.259Z,40.10
2023-05-13T20:40:05.135Z,34.80
2023-05-13T20:44:03.169Z,36.90
2023-05-13T20:48:01.177Z,36.30
2023-05-13T20:51:59.213Z,36.20
2023-05-13T20:55:57.143Z,30.30
2023-05-13T20:59:55.164Z,31.90
2023-05-13T21:04:19.358Z,32.50
2023-05-13T21:08:17.149Z,34.40
2023-05-13T21:12:15.128Z,34.10
2023-05-13T21:16:13.178Z,38.60
2023-05-13T21:20:11.141Z,31.10
2023-05-13T21:24:09.241Z,37.70
2023-05-13T21:28:07.117Z,27.20
2023-05-13T21:32:05.120Z,38.30
2023-05-13T21:36:03.081Z,30.20
2023-05-13T21:40:01.201Z,32.70
2023-05-13T21:43:59.057Z,33.30
2023-05-13T21:47:57.174Z,37.00
2023-05-13T21:51:55.144Z,46.20
2023-05-13T21:55:53.078Z,48.80
2023-05-13T21:59:51.052Z,73.50
2023-05-13T22:03:49.090Z,53.50
2023-05-13T22:07:47.041Z,70.00
2023-05-13T22:11:45.068Z,46.40
2023-05-13T22:15:43.081Z,56.70
2023-05-13T22:19:41.193Z,61.50
2023-05-13T22:23:39.113Z,53.20
2023-05-13T22:27:37.058Z,40.60
2023-05-13T22:31:35.023Z,52.80
2023-05-13T22:35:35.043Z,41.20
2023-05-13T22:39:33.052Z,58.30
2023-05-13T22:43:31.077Z,59.10
2023-05-13T22:47:29.085Z,53.60
2023-05-13T22:51:27.049Z,37.10
2023-05-13T22:55:24.996Z,57.50
2023-05-13T22:59:22.994Z,52.70
2023-05-13T23:03:20.983Z,54.10
2023-05-13T23:07:19.027Z,56.40
2023-05-13T23:11:16.983Z,54.00
2023-05-13T23:15:15.004Z,60.60
2023-05-13T23:19:13.038Z,59.30
2023-05-13T23:23:10.972Z,61.40
2023-05-13T23:27:08.934Z,53.60
2023-05-13T23:31:10.003Z,55.50
2023-05-13T23:35:07.956Z,53.40
2023-05-13T23:39:05.949Z,60.50
2023-05-13T23:43:03.963Z,63.40
2023-05-13T23:47:02.036Z,55.20
2023-05-13T23:50:59.953Z,60.60
2023-05-13T23:54:57.991Z,60.00
2023-05-13T23:58:55.905Z,61.10
